createdAt,value
2023-02-27T00:00:51.324Z,20.80
2023-02-27T00:01:51.341Z,20.79
2023-02-27T00:02:51.474Z,20.81
2023-02-27T00:03:51.448Z,20.80
2023-02-27T00:04:51.448Z,20.79
2023-02-27T00:05:51.474Z,20.79
2023-02-27T00:06:51.508Z,20.79
2023-02-27T00:07:51.518Z,20.78
2023-02-27T00:08:51.641Z,20.78
2023-02-27T00:25:52.090Z,20.77
2023-02-27T00:26:52.151Z,20.77
2023-02-27T00:27:52.141Z,20.76
2023-02-27T00:28:52.188Z,20.76
2023-02-27T00:29:52.218Z,20.74
2023-02-27T00:30:52.343Z,20.74
2023-02-27T00:31:52.407Z,20.72
2023-02-27T00:32:52.296Z,20.72
2023-02-27T00:33:52.294Z,20.72
2023-02-27T00:34:52.404Z,20.71
2023-02-27T00:35:52.402Z,20.72
2023-02-27T00:36:52.463Z,20.72
2023-02-27T00:37:52.419Z,20.71
2023-02-27T00:38:52.473Z,20.72
2023-02-27T00:39:52.525Z,20.72
2023-02-27T00:40:52.596Z,20.71
2023-02-27T00:41:52.549Z,20.70
2023-02-27T00:42:52.605Z,20.71
2023-02-27T00:43:52.658Z,20.70
2023-02-27T00:44:52.654Z,20.70
2023-02-27T00:45:52.705Z,20.69
2023-02-27T00:46:52.758Z,20.69
2023-02-27T00:47:52.740Z,20.69
2023-02-27T00:48:52.805Z,20.70
2023-02-27T00:49:52.804Z,20.70
2023-02-27T00:50:52.863Z,20.71
2023-02-27T00:51:52.867Z,20.70
2023-02-27T00:52:52.953Z,20.70
2023-02-27T00:53:52.981Z,20.70
2023-02-27T00:54:52.982Z,20.69
2023-02-27T00:55:53.003Z,20.70
2023-02-27T00:56:53.037Z,20.68
2023-02-27T00:57:53.068Z,20.68
2023-02-27T00:58:53.123Z,20.67
2023-02-27T00:59:53.135Z,20.67
2023-02-27T01:00:53.193Z,20.66
2023-02-27T01:01:53.200Z,20.67
2023-02-27T01:02:53.330Z,20.67
2023-02-27T01:03:53.264Z,20.66
2023-02-27T01:04:53.315Z,20.67
2023-02-27T01:05:53.328Z,20.67
2023-02-27T01:06:53.380Z,20.68
2023-02-27T01:07:53.390Z,20.68
2023-02-27T01:08:53.392Z,20.67
2023-02-27T01:09:53.437Z,20.65
2023-02-27T01:10:53.470Z,20.65
2023-02-27T01:11:53.518Z,20.65
2023-02-27T01:12:53.528Z,20.64
2023-02-27T01:13:53.565Z,20.65
2023-02-27T01:14:53.615Z,20.65
2023-02-27T01:15:53.657Z,20.64
2023-02-27T01:16:53.672Z,20.65
2023-02-27T01:17:53.704Z,20.65
2023-02-27T01:18:53.711Z,20.66
2023-02-27T01:19:53.786Z,20.66
2023-02-27T01:20:53.814Z,20.66
2023-02-27T01:21:53.832Z,20.66
2023-02-27T01:22:53.863Z,20.65
2023-02-27T01:23:53.906Z,20.64
2023-02-27T01:24:53.926Z,20.64
2023-02-27T01:25:53.976Z,20.64
2023-02-27T01:26:54.045Z,20.65
2023-02-27T01:27:54.041Z,20.65
2023-02-27T01:28:54.050Z,20.65
2023-02-27T01:29:54.067Z,20.65
2023-02-27T01:30:54.167Z,20.65
2023-02-27T01:31:54.317Z,20.65
2023-02-27T01:32:54.165Z,20.65
2023-02-27T01:33:54.221Z,20.66
2023-02-27T01:34:54.269Z,20.65
2023-02-27T01:35:54.281Z,20.64
2023-02-27T01:36:54.308Z,20.64
2023-02-27T01:37:54.310Z,20.64
2023-02-27T01:38:54.385Z,20.64
2023-02-27T01:39:54.374Z,20.65
2023-02-27T01:40:54.432Z,20.64
2023-02-27T01:41:54.443Z,20.65
2023-02-27T01:42:54.448Z,20.65
2023-02-27T01:43:54.514Z,20.65
2023-02-27T01:44:54.502Z,20.65
2023-02-27T01:45:54.583Z,20.64
2023-02-27T01:46:54.599Z,20.64
2023-02-27T01:47:54.598Z,20.64
2023-02-27T01:48:54.626Z,20.63
2023-02-27T01:49:54.683Z,20.64
2023-02-27T01:50:54.720Z,20.65
2023-02-27T01:51:54.737Z,20.64
2023-02-27T01:52:54.760Z,20.65
2023-02-27T01:53:54.762Z,20.65
2023-02-27T01:54:54.835Z,20.65
2023-02-27T01:55:54.849Z,20.64
2023-02-27T01:56:54.900Z,20.65
2023-02-27T01:57:54.936Z,20.64
2023-02-27T01:58:54.900Z,20.64
2023-02-27T01:59:54.944Z,20.64
2023-02-27T02:00:55.023Z,20.64
2023-02-27T02:01:55.068Z,20.64
2023-02-27T02:02:55.031Z,20.64
2023-02-27T02:03:55.088Z,20.64
2023-02-27T02:04:55.140Z,20.65
2023-02-27T02:05:55.148Z,20.65
2023-02-27T02:06:55.165Z,20.63
2023-02-27T02:07:55.202Z,20.63
2023-02-27T02:08:55.247Z,20.62
2023-02-27T02:09:55.247Z,20.62
2023-02-27T02:10:55.300Z,20.61
2023-02-27T02:11:55.345Z,20.62
2023-02-27T02:12:55.340Z,20.62
2023-02-27T02:13:55.386Z,20.62
2023-02-27T02:14:55.428Z,20.61
2023-02-27T02:15:55.463Z,20.61
2023-02-27T02:16:55.504Z,20.60
2023-02-27T02:17:55.542Z,20.60
2023-02-27T02:18:55.551Z,20.60
2023-02-27T02:19:55.587Z,20.59
2023-02-27T02:20:55.627Z,20.59
2023-02-27T02:21:55.689Z,20.59
2023-02-27T02:22:55.715Z,20.60
2023-02-27T02:23:55.722Z,20.60
2023-02-27T02:24:55.765Z,20.61
2023-02-27T02:25:55.790Z,20.61
2023-02-27T02:26:55.850Z,20.60
2023-02-27T02:27:55.856Z,20.61
2023-02-27T02:28:55.920Z,20.61
2023-02-27T02:29:55.944Z,20.61
2023-02-27T02:47:56.507Z,20.61
2023-02-27T02:48:56.509Z,20.60
2023-02-27T02:49:56.542Z,20.60
2023-02-27T02:50:56.572Z,20.61
2023-02-27T02:51:56.579Z,20.61
2023-02-27T02:52:59.119Z,20.62
2023-02-27T02:53:56.772Z,20.62
2023-02-27T02:54:56.788Z,20.61
2023-02-27T02:55:56.859Z,20.61
2023-02-27T02:56:56.871Z,20.60
2023-02-27T02:57:56.985Z,20.60
2023-02-27T02:58:56.908Z,20.60
2023-02-27T02:59:56.953Z,20.60
2023-02-27T03:00:57.046Z,20.60
2023-02-27T03:01:57.056Z,20.61
2023-02-27T03:02:57.081Z,20.59
2023-02-27T03:03:57.099Z,20.58
2023-02-27T03:04:57.122Z,20.57
2023-02-27T03:05:57.164Z,20.56
2023-02-27T03:06:57.238Z,20.57
2023-02-27T03:07:57.252Z,20.56
2023-02-27T03:08:57.303Z,20.56
2023-02-27T03:09:57.333Z,20.56
2023-02-27T03:10:57.372Z,20.56
2023-02-27T03:11:57.383Z,20.57
2023-02-27T03:12:59.516Z,20.56
2023-02-27T03:13:57.494Z,20.57
2023-02-27T03:14:57.505Z,20.57
2023-02-27T03:15:57.604Z,20.56
2023-02-27T03:16:57.586Z,20.57
2023-02-27T03:17:57.581Z,20.57
2023-02-27T03:18:57.606Z,20.57
2023-02-27T03:19:57.674Z,20.57
2023-02-27T03:20:57.687Z,20.57
2023-02-27T03:21:57.753Z,20.57
2023-02-27T03:22:57.751Z,20.57
2023-02-27T03:23:57.797Z,20.57
2023-02-27T03:24:57.814Z,20.57
2023-02-27T03:25:58.505Z,20.57
2023-02-27T03:26:57.881Z,20.58
2023-02-27T03:27:57.910Z,20.59
2023-02-27T03:28:57.966Z,20.59
2023-02-27T03:29:57.982Z,20.60
2023-02-27T03:30:58.052Z,20.60
2023-02-27T03:31:58.052Z,20.60
2023-02-27T03:32:58.049Z,20.60
2023-02-27T03:33:59.679Z,20.60
2023-02-27T03:34:58.079Z,20.61
2023-02-27T03:35:58.078Z,20.61
2023-02-27T03:36:58.113Z,20.61
2023-02-27T03:37:58.056Z,20.60
2023-02-27T03:49:57.997Z,20.61
2023-02-27T03:50:57.974Z,20.61
2023-02-27T03:51:57.948Z,20.61
2023-02-27T03:52:57.952Z,20.61
2023-02-27T03:53:57.925Z,20.61
2023-02-27T03:54:57.932Z,20.61
2023-02-27T03:55:57.906Z,20.60
2023-02-27T03:56:57.926Z,20.61
2023-02-27T03:57:57.895Z,20.61
2023-02-27T03:58:57.915Z,20.60
2023-02-27T03:59:57.893Z,20.59
2023-02-27T04:00:57.897Z,20.60
2023-02-27T04:01:57.948Z,20.60
2023-02-27T04:02:57.867Z,20.60
2023-02-27T04:03:57.861Z,20.60
2023-02-27T04:04:57.874Z,20.61
2023-02-27T04:05:57.832Z,20.60
2023-02-27T04:06:57.858Z,20.61
2023-02-27T04:07:57.847Z,20.61
2023-02-27T04:08:57.848Z,20.60
2023-02-27T04:09:57.834Z,20.60
2023-02-27T04:10:57.833Z,20.59
2023-02-27T04:11:57.803Z,20.60
2023-02-27T04:12:57.820Z,20.59
2023-02-27T04:13:57.785Z,20.59
2023-02-27T04:14:57.800Z,20.60
2023-02-27T04:15:57.807Z,20.60
2023-02-27T04:16:57.785Z,20.60
2023-02-27T04:17:57.749Z,20.60
2023-02-27T04:18:57.772Z,20.60
2023-02-27T04:19:57.764Z,20.60
2023-02-27T04:20:57.777Z,20.60
2023-02-27T04:21:57.756Z,20.60
2023-02-27T04:22:57.738Z,20.61
2023-02-27T04:23:57.714Z,20.61
2023-02-27T04:24:57.727Z,20.62
2023-02-27T04:25:57.690Z,20.61
2023-02-27T04:26:57.701Z,20.61
2023-02-27T04:27:57.714Z,20.60
2023-02-27T04:28:57.681Z,20.60
2023-02-27T04:29:57.722Z,20.61
2023-02-27T04:30:57.704Z,20.60
2023-02-27T04:31:57.793Z,20.60
2023-02-27T04:32:57.679Z,20.59
2023-02-27T04:33:57.655Z,20.59
2023-02-27T04:34:57.657Z,20.59
2023-02-27T04:35:57.687Z,20.59
2023-02-27T04:36:57.682Z,20.60
2023-02-27T04:37:57.645Z,20.60
2023-02-27T04:38:57.656Z,20.59
2023-02-27T04:39:57.635Z,20.59
2023-02-27T04:40:57.606Z,20.60
2023-02-27T04:41:57.671Z,20.60
2023-02-27T04:42:57.683Z,20.59
2023-02-27T04:43:57.726Z,20.59
2023-02-27T04:44:57.736Z,20.60
2023-02-27T04:45:57.930Z,20.59
2023-02-27T04:46:57.806Z,20.58
2023-02-27T04:47:57.859Z,20.60
2023-02-27T04:48:57.867Z,20.59
2023-02-27T04:49:57.910Z,20.60
2023-02-27T04:50:57.912Z,20.60
2023-02-27T04:51:58.737Z,20.60
2023-02-27T04:52:57.995Z,20.59
2023-02-27T04:53:58.006Z,20.60
2023-02-27T04:54:58.074Z,20.60
2023-02-27T04:55:58.048Z,20.60
2023-02-27T04:56:58.085Z,20.60
2023-02-27T04:57:58.130Z,20.59
2023-02-27T04:58:58.126Z,20.59
2023-02-27T04:59:58.170Z,20.59
2023-02-27T05:00:58.180Z,20.59
2023-02-27T05:01:58.351Z,20.59
2023-02-27T05:02:58.340Z,20.59
2023-02-27T05:04:00.374Z,20.60
2023-02-27T05:04:58.310Z,20.59
2023-02-27T05:05:58.309Z,20.59
2023-02-27T05:06:58.402Z,20.59
2023-02-27T05:07:58.393Z,20.59
2023-02-27T05:08:58.427Z,20.59
2023-02-27T05:09:58.453Z,20.59
2023-02-27T05:10:58.488Z,20.58
2023-02-27T05:11:58.509Z,20.57
2023-02-27T05:12:58.541Z,20.57
2023-02-27T05:13:58.554Z,20.57
2023-02-27T05:14:58.669Z,20.56
2023-02-27T05:15:58.747Z,20.55
2023-02-27T05:16:58.716Z,20.56
2023-02-27T05:17:58.761Z,20.56
2023-02-27T05:18:58.751Z,20.56
2023-02-27T05:19:58.789Z,20.56
2023-02-27T05:20:58.829Z,20.55
2023-02-27T05:21:58.886Z,20.55
2023-02-27T05:22:58.909Z,20.54
2023-02-27T05:23:58.942Z,20.54
2023-02-27T05:24:58.980Z,20.54
2023-02-27T05:25:59.003Z,20.54
2023-02-27T05:26:59.093Z,20.54
2023-02-27T05:27:59.097Z,20.55
2023-02-27T05:28:59.126Z,20.54
2023-02-27T05:29:59.129Z,20.54
2023-02-27T05:30:59.170Z,20.53
2023-02-27T05:31:59.307Z,20.54
2023-02-27T05:32:59.263Z,20.54
2023-02-27T05:34:59.315Z,20.54
2023-02-27T05:35:59.383Z,20.53
2023-02-27T05:36:59.410Z,20.53
2023-02-27T05:37:59.477Z,20.53
2023-02-27T05:38:59.479Z,20.52
2023-02-27T05:39:59.503Z,20.52
2023-02-27T05:40:59.558Z,20.53
2023-02-27T05:41:59.596Z,20.53
2023-02-27T05:42:59.655Z,20.53
2023-02-27T05:43:59.686Z,20.53
2023-02-27T05:44:59.735Z,20.54
2023-02-27T05:45:59.777Z,20.55
2023-02-27T05:46:59.792Z,20.54
2023-02-27T05:47:59.851Z,20.54
2023-02-27T05:48:59.856Z,20.55
2023-02-27T05:49:59.904Z,20.55
2023-02-27T05:50:59.920Z,20.54
2023-02-27T05:51:59.966Z,20.55
2023-02-27T05:53:00.002Z,20.55
2023-02-27T05:54:00.031Z,20.55
2023-02-27T05:55:00.121Z,20.55
2023-02-27T05:56:00.120Z,20.54
2023-02-27T05:57:00.163Z,20.55
2023-02-27T05:58:00.161Z,20.55
2023-02-27T05:59:00.242Z,20.56
2023-02-27T06:00:00.238Z,20.55
2023-02-27T06:01:07.304Z,20.56
2023-02-27T06:02:00.319Z,20.55
2023-02-27T06:03:00.280Z,20.56
2023-02-27T06:04:00.253Z,20.57
2023-02-27T06:05:00.263Z,20.56
2023-02-27T06:06:00.255Z,20.57
2023-02-27T06:07:00.234Z,20.57
2023-02-27T06:08:00.232Z,20.57
2023-02-27T06:09:00.243Z,20.57
2023-02-27T06:10:00.225Z,20.58
2023-02-27T06:11:00.219Z,20.57
2023-02-27T06:12:00.258Z,20.57
2023-02-27T06:13:00.196Z,20.58
2023-02-27T06:14:00.167Z,20.58
2023-02-27T06:15:00.184Z,20.57
2023-02-27T06:16:00.181Z,20.58
2023-02-27T06:17:00.240Z,20.57
2023-02-27T06:18:00.159Z,20.57
2023-02-27T06:19:00.134Z,20.58
2023-02-27T06:20:00.183Z,20.57
2023-02-27T06:21:00.184Z,20.58
2023-02-27T06:22:00.119Z,20.58
2023-02-27T06:23:00.113Z,20.58
2023-02-27T06:24:00.140Z,20.59
2023-02-27T06:25:00.127Z,20.58
2023-02-27T06:26:00.122Z,20.58
2023-02-27T06:27:00.116Z,20.58
2023-02-27T06:28:00.098Z,20.59
2023-02-27T06:29:00.067Z,20.59
2023-02-27T06:30:00.069Z,20.59
2023-02-27T06:31:00.190Z,20.60
2023-02-27T06:32:00.634Z,20.58
2023-02-27T06:33:00.058Z,20.58
2023-02-27T06:34:00.067Z,20.61
2023-02-27T06:35:00.002Z,20.62
2023-02-27T06:36:00.057Z,20.66
2023-02-27T06:37:00.896Z,20.69
2023-02-27T06:38:00.111Z,20.72
2023-02-27T06:39:00.150Z,20.75
2023-02-27T06:40:00.135Z,20.76
2023-02-27T06:41:00.199Z,20.77
2023-02-27T06:42:00.210Z,20.78
2023-02-27T06:43:01.535Z,20.79
2023-02-27T06:44:00.267Z,20.78
2023-02-27T06:45:00.315Z,20.78
2023-02-27T06:46:07.416Z,20.79
2023-02-27T06:47:00.338Z,20.81
2023-02-27T06:48:00.951Z,20.84
2023-02-27T06:49:00.286Z,20.87
2023-02-27T06:50:00.399Z,20.90
2023-02-27T06:51:00.299Z,20.93
2023-02-27T06:52:00.244Z,20.95
2023-02-27T06:53:00.560Z,20.97
2023-02-27T06:54:00.290Z,20.98
2023-02-27T06:55:00.299Z,21.00
2023-02-27T06:56:00.257Z,21.02
2023-02-27T06:57:00.246Z,21.05
2023-02-27T06:58:00.564Z,21.06
2023-02-27T06:59:00.216Z,21.07
2023-02-27T07:00:00.262Z,21.08
2023-02-27T07:01:00.222Z,21.09
2023-02-27T07:02:00.189Z,21.10
2023-02-27T07:03:00.555Z,21.10
2023-02-27T07:04:00.246Z,21.11
2023-02-27T07:05:00.256Z,21.12
2023-02-27T07:06:01.184Z,21.13
2023-02-27T07:07:35.190Z,21.15
2023-02-27T07:08:01.265Z,21.15
2023-02-27T07:09:06.698Z,21.17
2023-02-27T07:10:01.146Z,21.17
2023-02-27T07:11:00.142Z,21.20
2023-02-27T07:13:00.582Z,21.21
2023-02-27T07:14:00.120Z,21.22
2023-02-27T07:15:00.141Z,21.23
2023-02-27T07:16:00.184Z,21.25
2023-02-27T07:17:00.151Z,21.26
2023-02-27T07:18:00.153Z,21.26
2023-02-27T07:19:01.077Z,21.27
2023-02-27T07:20:00.336Z,21.28
2023-02-27T07:21:00.311Z,21.30
2023-02-27T07:22:00.345Z,21.32
2023-02-27T07:23:00.584Z,21.33
2023-02-27T07:24:00.470Z,21.33
2023-02-27T07:25:00.495Z,21.33
2023-02-27T07:26:00.583Z,21.34
2023-02-27T07:27:00.668Z,21.36
2023-02-27T07:28:00.715Z,21.38
2023-02-27T07:29:00.760Z,21.39
2023-02-27T07:30:00.798Z,21.41
2023-02-27T07:31:00.802Z,21.42
2023-02-27T07:32:00.835Z,21.43
2023-02-27T07:33:00.860Z,21.44
2023-02-27T07:34:01.075Z,21.46
2023-02-27T07:35:00.954Z,21.46
2023-02-27T07:36:01.086Z,21.48
2023-02-27T07:37:01.038Z,21.51
2023-02-27T07:38:01.086Z,21.51
2023-02-27T07:39:01.604Z,21.54
2023-02-27T07:40:02.082Z,21.57
2023-02-27T07:41:01.204Z,21.57
2023-02-27T07:42:01.217Z,21.59
2023-02-27T07:43:01.630Z,21.60
2023-02-27T07:44:01.306Z,21.62
2023-02-27T07:45:01.305Z,21.64
2023-02-27T07:46:01.579Z,21.67
2023-02-27T07:47:01.347Z,21.71
2023-02-27T07:48:01.376Z,21.74
2023-02-27T07:49:01.442Z,21.77
2023-02-27T07:50:01.440Z,21.81
2023-02-27T07:51:01.372Z,21.83
2023-02-27T07:53:01.371Z,21.89
2023-02-27T08:11:01.834Z,21.65
2023-02-27T08:19:02.139Z,21.52
2023-02-27T08:35:02.708Z,21.78
2023-02-27T09:10:03.649Z,20.95
2023-02-27T09:11:03.548Z,20.90
2023-02-27T09:12:03.625Z,20.83
2023-02-27T09:13:03.673Z,20.78
2023-02-27T09:23:04.015Z,20.53
2023-02-27T09:24:17.127Z,20.52
2023-02-27T09:26:04.073Z,20.51
2023-02-27T09:27:04.033Z,20.52
2023-02-27T09:28:04.044Z,20.53
2023-02-27T09:31:04.064Z,20.47
2023-02-27T10:00:06.659Z,21.75
2023-02-27T10:39:06.530Z,22.25
2023-02-27T10:40:06.600Z,22.26
2023-02-27T10:41:06.697Z,22.25
2023-02-27T10:42:06.701Z,22.20
2023-02-27T10:43:06.736Z,22.12
2023-02-27T10:44:06.763Z,22.02
2023-02-27T10:45:07.376Z,21.83
2023-02-27T10:46:06.876Z,21.71
2023-02-27T10:47:07.228Z,21.68
2023-02-27T10:48:06.906Z,21.66
2023-02-27T10:49:06.939Z,21.66
2023-02-27T10:50:06.957Z,21.66
2023-02-27T10:51:07.160Z,21.67
2023-02-27T10:52:07.068Z,21.67
2023-02-27T10:53:07.118Z,21.70
2023-02-27T10:54:07.736Z,21.72
2023-02-27T10:55:07.090Z,21.75
2023-02-27T10:56:07.250Z,21.78
2023-02-27T10:57:07.170Z,21.82
2023-02-27T10:58:07.203Z,21.86
2023-02-27T10:59:07.210Z,21.88
2023-02-27T11:00:07.133Z,21.90
2023-02-27T11:01:07.254Z,21.92
2023-02-27T11:02:07.290Z,21.94
2023-02-27T11:04:07.178Z,21.95
2023-02-27T11:05:07.680Z,21.97
2023-02-27T11:06:07.138Z,21.99
2023-02-27T11:07:07.145Z,22.00
2023-02-27T11:08:07.096Z,22.02
2023-02-27T11:09:07.073Z,22.05
2023-02-27T11:10:07.067Z,22.08
2023-02-27T11:11:07.183Z,22.10
2023-02-27T11:12:07.066Z,22.13
2023-02-27T11:13:07.164Z,22.15
2023-02-27T11:14:07.341Z,22.17
2023-02-27T11:15:07.258Z,22.18
2023-02-27T11:16:07.355Z,22.19
2023-02-27T11:17:07.419Z,22.20
2023-02-27T11:18:07.468Z,22.20
2023-02-27T11:20:07.560Z,22.17
2023-02-27T11:21:07.635Z,22.17
2023-02-27T11:47:09.177Z,22.30
2023-02-27T12:06:09.742Z,22.32
2023-02-27T14:57:16.536Z,21.24
2023-02-27T14:58:16.582Z,21.25
2023-02-27T14:59:16.634Z,21.26
2023-02-27T15:00:16.715Z,21.26
2023-02-27T15:01:16.760Z,21.27
2023-02-27T15:02:16.808Z,21.28
2023-02-27T15:03:16.878Z,21.28
2023-02-27T15:04:16.972Z,21.27
2023-02-27T15:05:17.738Z,21.27
2023-02-27T15:06:17.040Z,21.26
2023-02-27T15:07:17.356Z,21.26
2023-02-27T15:08:17.159Z,21.27
2023-02-27T15:09:17.226Z,21.26
2023-02-27T15:10:17.283Z,21.26
2023-02-27T15:11:17.389Z,21.26
2023-02-27T15:12:17.470Z,21.26
2023-02-27T15:13:17.536Z,21.26
2023-02-27T15:14:17.499Z,21.25
2023-02-27T15:15:17.636Z,21.25
2023-02-27T15:16:17.643Z,21.24
2023-02-27T15:17:17.818Z,21.24
2023-02-27T15:18:17.695Z,21.25
2023-02-27T15:19:17.702Z,21.21
2023-02-27T15:20:17.805Z,21.20
2023-02-27T15:21:17.765Z,21.20
2023-02-27T15:22:19.626Z,21.20
2023-02-27T15:23:18.798Z,21.20
2023-02-27T15:24:17.771Z,21.19
2023-02-27T15:25:17.737Z,21.19
2023-02-27T15:26:17.750Z,21.19
2023-02-27T15:27:17.759Z,21.19
2023-02-27T15:28:17.922Z,21.18
2023-02-27T15:29:17.710Z,21.17
2023-02-27T15:30:17.719Z,21.17
2023-02-27T15:31:17.751Z,21.16
2023-02-27T15:32:17.779Z,21.17
2023-02-27T15:33:17.703Z,21.17
2023-02-27T15:34:17.756Z,21.17
2023-02-27T15:35:17.771Z,21.17
2023-02-27T15:36:17.766Z,21.17
2023-02-27T15:37:17.764Z,21.17
2023-02-27T15:38:19.439Z,21.16
2023-02-27T15:39:17.779Z,21.16
2023-02-27T15:40:17.835Z,21.16
2023-02-27T15:41:17.817Z,21.15
2023-02-27T15:42:17.867Z,21.14
2023-02-27T15:43:17.868Z,21.14
2023-02-27T15:44:17.881Z,21.13
2023-02-27T15:45:17.814Z,21.13
2023-02-27T15:46:17.913Z,21.13
2023-02-27T15:47:17.835Z,21.12
2023-02-27T15:48:17.837Z,21.10
2023-02-27T15:49:17.798Z,21.10
2023-02-27T15:50:17.835Z,21.10
2023-02-27T15:51:17.858Z,21.10
2023-02-27T15:52:17.866Z,21.09
2023-02-27T15:53:17.836Z,21.09
2023-02-27T15:54:17.833Z,21.08
2023-02-27T15:55:17.861Z,21.08
2023-02-27T15:56:17.846Z,21.06
2023-02-27T15:57:17.901Z,21.05
2023-02-27T15:58:17.898Z,21.05
2023-02-27T15:59:17.881Z,21.04
2023-02-27T16:00:17.921Z,21.04
2023-02-27T16:01:17.952Z,21.05
2023-02-27T16:02:17.964Z,21.03
2023-02-27T16:03:17.932Z,21.02
2023-02-27T16:04:20.504Z,21.03
2023-02-27T16:05:17.921Z,21.02
2023-02-27T16:06:17.938Z,21.03
2023-02-27T16:07:17.903Z,21.03
2023-02-27T16:08:17.917Z,21.02
2023-02-27T16:09:17.876Z,21.01
2023-02-27T16:10:17.877Z,21.00
2023-02-27T16:11:17.923Z,21.00
2023-02-27T16:12:17.903Z,20.99
2023-02-27T16:13:17.843Z,20.99
2023-02-27T16:14:17.824Z,20.98
2023-02-27T16:15:17.861Z,20.99
2023-02-27T16:16:17.843Z,20.98
2023-02-27T16:17:17.834Z,20.97
2023-02-27T16:18:17.841Z,20.98
2023-02-27T16:19:17.784Z,20.97
2023-02-27T16:20:17.793Z,20.97
2023-02-27T16:21:17.812Z,20.97
2023-02-27T16:22:17.805Z,20.97
2023-02-27T16:23:17.837Z,20.97
2023-02-27T16:24:17.768Z,20.97
2023-02-27T16:25:17.761Z,20.97
2023-02-27T16:26:17.784Z,20.97
2023-02-27T16:27:17.796Z,20.97
2023-02-27T16:28:17.801Z,20.98
2023-02-27T16:29:17.760Z,20.97
2023-02-27T16:30:17.750Z,20.97
2023-02-27T16:31:17.759Z,20.97
2023-02-27T16:32:17.762Z,20.96
2023-02-27T16:33:17.776Z,20.95
2023-02-27T16:34:17.734Z,20.95
2023-02-27T16:35:17.829Z,20.96
2023-02-27T16:36:17.850Z,20.95
2023-02-27T16:37:17.710Z,20.96
2023-02-27T16:38:17.720Z,20.96
2023-02-27T16:39:17.655Z,20.95
2023-02-27T16:40:17.753Z,20.95
2023-02-27T16:41:17.792Z,20.95
2023-02-27T16:42:17.696Z,20.94
2023-02-27T16:43:17.689Z,20.94
2023-02-27T16:44:17.669Z,20.94
2023-02-27T16:45:17.667Z,20.94
2023-02-27T16:46:17.707Z,20.94
2023-02-27T16:47:17.617Z,20.94
2023-02-27T16:48:17.579Z,20.94
2023-02-27T16:49:19.903Z,20.94
2023-02-27T16:50:17.728Z,20.94
2023-02-27T16:51:17.749Z,20.95
2023-02-27T16:52:17.756Z,20.95
2023-02-27T16:53:17.755Z,20.94
2023-02-27T16:54:17.769Z,20.93
2023-02-27T16:55:17.763Z,20.93
2023-02-27T16:56:23.623Z,20.93
2023-02-27T16:57:18.760Z,20.92
2023-02-27T16:58:17.753Z,20.92
2023-02-27T16:59:17.754Z,20.91
2023-02-27T17:00:17.762Z,20.91
2023-02-27T17:01:17.768Z,20.91
2023-02-27T17:02:17.704Z,20.92
2023-02-27T17:03:17.731Z,20.92
2023-02-27T17:04:25.547Z,20.91
2023-02-27T17:05:18.721Z,20.91
2023-02-27T17:06:17.709Z,20.91
2023-02-27T17:07:17.672Z,20.92
2023-02-27T17:08:17.708Z,20.92
2023-02-27T17:09:17.669Z,20.92
2023-02-27T17:10:17.676Z,20.91
2023-02-27T17:11:17.663Z,20.90
2023-02-27T17:12:17.693Z,20.90
2023-02-27T17:13:17.670Z,20.91
2023-02-27T17:14:17.637Z,20.90
2023-02-27T17:15:17.681Z,20.90
2023-02-27T17:16:17.757Z,20.90
2023-02-27T17:17:17.614Z,20.89
2023-02-27T17:18:17.625Z,20.88
2023-02-27T17:19:17.669Z,20.87
2023-02-27T17:20:17.620Z,20.87
2023-02-27T17:21:17.561Z,20.87
2023-02-27T17:22:17.610Z,20.86
2023-02-27T17:23:17.586Z,20.86
2023-02-27T17:24:17.571Z,20.85
2023-02-27T17:25:17.564Z,20.85
2023-02-27T17:26:17.572Z,20.85
2023-02-27T17:27:17.565Z,20.84
2023-02-27T17:28:17.574Z,20.84
2023-02-27T17:29:17.559Z,20.85
2023-02-27T17:30:17.608Z,20.84
2023-02-27T17:31:17.601Z,20.85
2023-02-27T17:32:17.642Z,20.84
2023-02-27T17:33:17.673Z,20.86
2023-02-27T17:34:17.663Z,20.85
2023-02-27T17:35:17.696Z,20.85
2023-02-27T17:36:17.690Z,20.85
2023-02-27T17:37:17.753Z,20.85
2023-02-27T17:38:17.769Z,20.85
2023-02-27T17:39:17.785Z,20.84
2023-02-27T17:40:17.835Z,20.84
2023-02-27T17:41:17.818Z,20.83
2023-02-27T17:42:17.845Z,20.84
2023-02-27T17:43:17.886Z,20.83
2023-02-27T17:44:17.894Z,20.83
2023-02-27T17:45:17.977Z,20.82
2023-02-27T17:46:17.997Z,20.83
2023-02-27T17:47:17.970Z,20.84
2023-02-27T17:48:17.996Z,20.84
2023-02-27T17:49:18.009Z,20.84
2023-02-27T17:50:18.041Z,20.84
2023-02-27T17:51:18.068Z,20.83
2023-02-27T17:52:18.081Z,20.84
2023-02-27T17:53:18.110Z,20.83
2023-02-27T17:54:18.184Z,20.83
2023-02-27T17:55:18.182Z,20.84
2023-02-27T17:56:18.188Z,20.84
2023-02-27T17:57:18.182Z,20.85
2023-02-27T17:58:18.256Z,20.84
2023-02-27T18:27:18.857Z,20.78
2023-02-27T22:00:26.506Z,20.59
2023-02-27T22:01:26.713Z,20.58
2023-02-27T22:02:26.649Z,20.58
2023-02-27T22:03:26.624Z,20.58
2023-02-27T22:04:26.665Z,20.57
2023-02-27T22:05:26.715Z,20.58
2023-02-27T22:06:26.773Z,20.58
2023-02-27T22:07:26.844Z,20.57
2023-02-27T22:08:26.877Z,20.58
2023-02-27T22:09:26.898Z,20.59
2023-02-27T22:10:26.970Z,20.58
2023-02-27T22:11:27.388Z,20.57
2023-02-27T22:12:27.042Z,20.57
2023-02-27T22:13:27.170Z,20.57
2023-02-27T22:14:27.172Z,20.57
2023-02-27T22:15:27.199Z,20.57
2023-02-27T22:16:27.282Z,20.57
2023-02-27T22:17:27.346Z,20.57
2023-02-27T22:18:27.394Z,20.57
2023-02-27T22:19:27.445Z,20.56
2023-02-27T22:20:27.507Z,20.55
2023-02-27T22:21:28.006Z,20.56
2023-02-27T22:22:27.611Z,20.55
2023-02-27T22:23:27.631Z,20.56
2023-02-27T22:24:27.751Z,20.55
2023-02-27T22:25:27.741Z,20.56
2023-02-27T22:26:27.891Z,20.55
2023-02-27T22:27:27.867Z,20.56
2023-02-27T22:28:27.940Z,20.57
2023-02-27T22:29:27.947Z,20.56
2023-02-27T22:30:28.023Z,20.56
2023-02-27T22:31:28.604Z,20.56
2023-02-27T22:32:28.142Z,20.56
2023-02-27T22:33:28.216Z,20.55
2023-02-27T22:34:28.219Z,20.56
2023-02-27T22:35:28.329Z,20.55
2023-02-27T22:36:28.341Z,20.56
2023-02-27T22:37:28.385Z,20.55
2023-02-27T22:38:28.484Z,20.55
2023-02-27T22:39:28.513Z,20.55
2023-02-27T22:40:28.562Z,20.55
2023-02-27T22:41:28.997Z,20.54
2023-02-27T22:42:28.637Z,20.53
2023-02-27T22:43:28.736Z,20.53
2023-02-27T22:44:28.756Z,20.53
2023-02-27T22:45:29.425Z,20.53
2023-02-27T22:46:28.919Z,20.53
2023-02-27T22:47:28.938Z,20.53
2023-02-27T22:48:28.994Z,20.54
2023-02-27T22:49:29.056Z,20.53
2023-02-27T22:50:29.049Z,20.53
2023-02-27T22:51:29.500Z,20.52
2023-02-27T22:52:29.202Z,20.52
2023-02-27T22:53:29.285Z,20.52
2023-02-27T22:54:29.275Z,20.52
2023-02-27T22:55:29.389Z,20.52
2023-02-27T22:56:29.509Z,20.52
2023-02-27T22:57:29.451Z,20.51
2023-02-27T22:58:29.526Z,20.50
2023-02-27T22:59:29.603Z,20.50
2023-02-27T23:00:29.663Z,20.49
2023-02-27T23:01:30.000Z,20.49
2023-02-27T23:02:29.763Z,20.48
2023-02-27T23:03:29.875Z,20.47
2023-02-27T23:04:29.932Z,20.47
2023-02-27T23:05:29.918Z,20.47
2023-02-27T23:06:30.026Z,20.48
2023-02-27T23:07:30.064Z,20.48
2023-02-27T23:08:30.120Z,20.48
2023-02-27T23:09:30.200Z,20.49
2023-02-27T23:10:30.254Z,20.49
2023-02-27T23:11:30.707Z,20.48
